Main page
METAR-TAF:

METAR-TAF

Airports :

Singapore, Singapore

Paya Lebar Air Base

latitude: 01-22N, longitude: 103-55E, elevation: 18 m

Current weather observation

The report was made 1 hour and 10 minutes ago, at 07:00 UTC
Wind 8 kt from the South
Temperature 34°C
Humidity 47%
Pressure 1007 hPa
Visibility 10 km or more
Few clouds at a height of 2200 ft
Broken clouds at a height of 30000 ft

METAR: WSAP 040700Z 19008KT 9999 FEW022 BKN300 34/21 Q1007

Time: 16:10 (08:10 UTC)

Forecast

The report was made 10 minutes ago, at 08:00 UTC
Forecast valid from 04 at 08 UTC to 05 at 12 UTC
Wind 6 kt from variable directions
Visibility 10 km or more
Few clouds at a height of 1800 ft, Cumulonimbus.
Scattered clouds at a height of 2000 ft
Temporary
from 05 at 03 UTC to 05 at 06 UTC
Visibility: 3000 m
Few clouds at a height of 1200 ft, Cumulonimbus.
Broken clouds at a height of 1500 ft
thunderstorm, rain

TAF: WSAP 040800Z 0408/0512 VRB06KT 9999 FEW018CB SCT020 TEMPO 0503/0506 3000 TSRA FEW012CB BKN015

Weather observations and forecasts of more than 4000 airports (METAR and TAF reports).

The available stations are represented by yellow and red dots on the map.

Hover mouse over dot to see the name of the station.

Then click to see weather observations and forecasts.

To change the map : click on the green buttons with a black cross to zoom in, on the green button with a dash to zoom out, or on the green arrows for adjacent maps.


METAR-TAF: